Tikaboo Peak, Nevada Weather observations

Data are for 10 minute period ending at time listed.
 Day   Time   Solar   Ave.   Ave.  Ave.  Vector  Max.   Baro.   Total    
  of    of     Rad.   Air    Rel.  Wind   Wind   Wind  Press.  Precip.   
Year   Day            Temp.  Hum.  Speed  Dir.   Gust                    
2016   (PST)  Kw/m2    F      %     mph   deg.    mph    mb.     in.     
-------------------------------------------------------------------------
 344    8:50   0.17   37.3    75   12.2   340    15.4   765.3    0.00 
 344    9:00   0.19   36.0    82   11.8   339    15.3   765.3    0.00 
 344    9:10   0.26   35.6    86   12.8   357    15.3   765.5    0.00 
 344    9:20   0.28   36.0    87   10.6    13    14.9   765.7    0.00 
 344    9:30   0.34   35.8    88   11.5     8    15.5   765.8    0.00 
 344    9:40   0.24   36.2    86   10.3     8    13.9   765.9    0.00 
 344    9:50   0.28   35.9    86   11.9     5    15.4   765.9    0.00 
 344   10:00   0.29   36.4    84   10.6     0    13.7   765.9    0.00 
 344   10:10   0.28   36.8    82    9.8     8    13.6   765.9    0.00 
 344   10:20   0.24   37.1    78    9.7   352    12.1   765.9    0.00 
 344   10:30   0.23   37.2    78    6.0    14    10.3   766.0    0.00 
 344   10:40   0.21   36.8    77    7.1   329     9.3   765.8    0.00 
 344   10:50   0.21   36.5    74    9.9   311    14.1   765.7    0.00 
 344   11:00   0.25   38.1    66   10.8   310    13.8   765.5    0.00 
 344   11:10   0.26   38.0    67   11.8   314    13.4   765.4    0.00 
 344   11:20   0.24   39.2    63   11.8   307    14.0   765.4    0.00 
 344   11:30   0.23   38.2    67    9.4   305    11.8   765.3    0.00 
 344   11:40   0.20   38.7    64   11.1   300    11.9   765.2    0.00 
 344   11:50   0.19   38.7    65    5.6   292     9.6   765.2    0.00 
 344   12:00   0.22   38.4    65    6.7   298     9.4   765.1    0.00 
 344   12:10   0.24   38.2    65   11.4   296    13.4   765.0    0.00 
 344   12:20   0.27   38.8    63   10.3   302    13.2   764.9    0.00 
 344   12:30   0.49   39.3    62   10.6   299    13.4   764.8    0.00 
 344   12:40   0.47   42.0    55   10.6   306    13.3   764.6    0.00 
 344   12:50   0.58   42.0    61    4.6   311    10.1   764.7    0.00 
 344   13:00   0.36   41.2    68    1.4   282     3.9   764.6    0.00 
 344   13:10   0.32   39.0    74    1.7   358     5.8   764.8    0.00 
 344   13:20   0.45   38.4    72    2.8   247     6.6   764.7    0.00 
 344   13:30   0.46   39.2    72    1.4   211     4.7   764.8    0.00 
 344   13:40   0.21   38.5    71    2.5   287     5.8   764.8    0.00 
 344   13:50   0.21   36.9    73    4.4   279     7.2   764.7    0.00 
 344   14:00   0.19   36.8    77    1.7   262     5.4   764.6    0.00 
 344   14:10   0.19   38.6    65    7.3   341     9.6   764.6    0.00 
 344   14:20   0.17   40.1    66    2.5   333     8.1   764.6    0.00 
 344   14:30   0.16   38.5    68    4.8   356     8.3   764.5    0.00 
 344   14:40   0.17   39.2    68    6.3    19     7.5   764.5    0.00 
 344   14:50   0.18   40.3    61    7.0    31     8.6   764.5    0.00 
 344   15:00   0.18   41.6    56    8.4    33     9.2   764.4    0.00 
 344   15:10   0.14   42.5    53    8.6    33     9.5   764.5    0.00 
 344   15:20   0.10   42.7    51    9.4    42    10.7   764.5    0.00 
 344   15:30   0.08   42.4    51    8.2    56     8.9   764.5    0.00 
 344   15:40   0.06   41.4    53    8.0    64     9.2   764.4    0.00 
 344   15:50   0.05   40.8    54    8.2    62    10.0   764.5    0.00 
 344   16:00   0.03   40.0    56    8.0    61     8.8   764.4    0.00 
 344   16:10   0.02   38.8    60    8.1    55    10.1   764.5    0.00 
 344   16:20   0.01   38.2    61    9.6    41    10.7   764.4    0.00 
 344   16:30   0.00   38.7    60    9.6    38    11.1   764.3    0.00 
 344   16:40   0.00   38.7    59    8.9    25    10.4   764.2    0.00 
 344   16:50   0.00   38.7    58    8.8    31    10.3   764.2    0.00 
 344   17:00   0.00   38.4    58    8.7    32    11.3   764.2    0.00 
 344   17:10   0.00   37.6    62    9.3    27    10.2   764.2    0.00 
 344   17:20   0.00   36.9    63    9.4    33    10.3   764.1    0.00 
 344   17:30   0.00   36.7    65    9.0    17    10.9   763.9    0.00 
 344   17:40   0.00   36.6    71    6.1    51     8.9   764.0    0.00 
 344   17:50   0.00   35.4    70    6.8    26     9.7   764.0    0.00 
 344   18:00   0.00   35.5    73    7.0    48     9.0   764.0    0.00 
 344   18:10   0.00   35.9    72    9.8    34    11.0   763.9    0.00 
 344   18:20   0.00   36.3    69    9.4    22    10.0   763.9    0.00 
 344   18:30   0.00   37.5    62    9.1    12     9.8   763.9    0.00 
 344   18:40   0.00   39.5    55    8.0    18     9.6   763.8    0.00 
 344   18:50   0.00   38.9    57    8.6    28     9.9   763.8    0.00 
 344   19:00   0.00   37.9    60    7.6    34     9.4   763.8    0.00 
 344   19:10   0.00   37.8    61    7.9    35     9.9   763.9    0.00 
 344   19:20   0.00   37.4    66    9.1    29    10.3   763.9    0.00 
 344   19:30   0.00   37.9    63    9.0    16    10.0   763.8    0.00 
 344   19:40   0.00   38.2    62    9.9    20    11.0   763.9    0.00 
 344   19:50   0.00   38.2    62    9.5    22     9.9   763.9    0.00 
 344   20:00   0.00   38.1    60    9.2    23     9.9   764.0    0.00 
 344   20:10   0.00   37.7    60    8.0    20     8.8   764.0    0.00 
 344   20:20   0.00   38.4    59    7.8    17     8.6   763.9    0.00 
 344   20:30   0.00   38.5    62    7.6    25     9.3   763.9    0.00 
 344   20:40   0.00   37.8    64    7.9    18     9.9   763.8    0.00 
 344   20:50   0.00   37.6    70    7.0     2     8.1   763.7    0.00 
 344   21:00   0.00   36.9    74    8.4     2     9.1   763.7    0.00 
 344   21:10   0.00   38.3    63    8.9     4    10.4   763.7    0.00 
 344   21:20   0.00   38.1    64   10.2    24    10.9   763.9    0.00 
 344   21:30   0.00   37.9    60   11.4    29    13.0   763.9    0.00 
 344   21:40   0.00   38.5    56   13.6    28    15.2   764.0    0.00 
 344   21:50   0.00   39.6    51   15.9    10    19.1   763.9    0.00 
 344   22:00   0.00   39.2    52   17.2    11    20.0   764.0    0.00 
 344   22:10   0.00   40.1    45   16.6    15    18.6   763.9    0.00 
 344   22:20   0.00   40.6    41   16.1    20    19.1   763.9    0.00 
 344   22:30   0.00   40.3    44   15.6    18    19.0   763.9    0.00 
 344   22:40   0.00   39.4    52   16.2     6    18.6   763.8    0.00 
 344   22:50   0.00   38.8    56   16.4     6    17.9   763.7    0.00 
 344   23:00   0.00   38.2    62   14.1     4    17.5   763.7    0.00 
 344   23:10   0.00   37.4    66   17.4     6    20.2   763.7    0.00 
 344   23:20   0.00   36.9    68   17.8     7    19.8   763.6    0.00 
 344   23:30   0.00   37.1    64   17.5    12    19.9   763.5    0.00 
 344   23:40   0.00   36.9    68   18.5     5    20.7   763.5    0.00 
 344   23:50   0.00   36.6    68   18.3   351    21.1   763.3    0.00 
 345    0:00   0.00   36.7    65   18.0   356    20.8   763.3    0.00 
 345    0:10   0.00   36.3    66   19.4   356    22.3   763.2    0.00 
 345    0:20   0.00   35.0    73   17.7   358    20.5   763.2    0.00 
 345    0:30   0.00   34.1    72   19.8   352    20.6   763.0    0.00 
 345    0:40   0.00   33.9    76   18.1   355    20.2   762.8    0.00 
 345    0:50   0.00   34.1    82   18.6   348    20.9   762.6    0.00 
 345    1:00   0.00   34.1    81   18.8   357    22.0   762.7    0.00 
 345    1:10   0.00   33.8    79   15.5     3    21.8   762.9    0.00 
 345    1:20   0.00   32.5    83   16.5    12    25.7   763.0    0.00 
 345    1:30   0.00   33.0    84   23.6     8    25.9   762.8    0.00 
 345    1:40   0.00   32.6    92   21.8     1    25.6   762.7    0.00 
 345    1:50   0.00   32.1    95   20.3   357    24.3   762.7    0.00 
 345    2:00   0.00   32.3    95   21.2   359    23.8   762.6    0.00 
 345    2:10   0.00   32.3    94   20.7   350    23.0   762.5    0.00 
 345    2:20   0.00   32.3    95   22.6   348    24.7   762.4    0.00 
 345    2:30   0.00   32.5    94   22.0   347    24.2   762.3    0.00 
 345    2:40   0.00   32.4    96   19.0   344    24.1   762.2    0.00 
 345    2:50   0.00   32.2    98   18.6   350    23.2   762.1    0.00 
 345    3:00   0.00   32.3    98   19.7     4    24.9   762.0    0.00 
 345    3:10   0.00   32.9    96   22.5     5    26.5   761.9    0.00 
 345    3:20   0.00   32.9    95   22.2     2    26.0   761.8    0.00 
 345    3:30   0.00   33.3    89   19.8     9    25.1   761.7    0.00 
 345    3:40   0.00   33.0    92   20.8     2    25.2   761.6    0.00 
 345    3:50   0.00   32.6    96   20.9     6    24.6   761.6    0.00 
 345    4:00   0.00   33.4    91   20.0    13    24.0   761.5    0.00 
 345    4:10   0.00   34.6    83   18.9     8    22.2   761.4    0.00 
 345    4:20   0.00   34.7    88   18.4     2    22.0   761.4    0.00 
 345    4:30   0.00   34.0    92   17.2   357    22.3   761.2    0.00 
 345    4:40   0.00   34.1    90   16.9   344    24.8   761.1    0.00 
 345    4:50   0.00   34.2    88   17.9   356    24.3   761.2    0.00 
 345    5:00   0.00   32.7    96   18.0     4    22.9   761.4    0.00 
 345    5:10   0.00   32.4    98   19.6    11    25.9   761.3    0.00 
 345    5:20   0.00   33.0    99   19.3    16    24.1   761.2    0.00 
 345    5:30   0.00   32.4    99   18.9    19    23.2   761.3    0.00 
 345    5:40   0.00   32.8   100   19.8    17    23.7   761.3    0.00 
 345    5:50   0.00   33.0   100   19.7    13    24.5   761.2    0.00 
 345    6:00   0.00   33.6   100   18.4    14    23.2   761.1    0.00 
 345    6:10   0.00   33.4   100   15.3    22    22.3   761.0    0.00 
 345    6:20   0.00   32.5   100   15.4    22    21.1   761.2    0.00 
 345    6:30   0.00   32.6   100   20.4    15    23.5   761.0    0.00 
 345    6:40   0.00   32.9   100   18.9    21    24.1   761.0    0.00 
 345    6:50   0.00   32.6   100   20.9    18    28.6   761.0    0.00 
 345    7:00   0.01   32.5   100   17.6    14    23.7   761.1    0.00 
 345    7:10   0.02   32.3    99   16.7     6    20.3   761.1    0.00 
 345    7:20   0.03   33.5    96   21.7    18    25.8   760.9    0.00 
 345    7:30   0.04   34.1    88   21.2    12    24.0   760.9    0.00 
 345    7:40   0.06   34.4    84   22.6    20    26.3   760.9    0.00 
 345    7:50   0.13   35.7    78   19.5    26    23.7   760.9    0.00 
 345    8:00   0.11   37.7    73   19.6    21    24.1   761.0    0.00 
 345    8:10   0.18   35.9    78   13.1   359    15.6   761.3    0.00 
 345    8:20   0.27   37.2    75   16.8     3    22.2   761.2    0.00 
 345    8:30   0.28   37.6    76    9.9    10    21.1   761.4    0.00 
 345    8:40   0.28   38.3    72   15.6     8    21.6   761.5    0.00 

Return to Tikaboo Peak graphs page.


Western Regional Climate Center,wrcc@dri.edu